Time;durP1;ratioP1;P1;durP2;ratioP2;P2;SDS_P1;SDS_P2;PMS_P1;PMS_P2;Temp;Humidity;BMP_temperature;BMP_pressure;BME280_temperature;BME280_humidity;BME280_pressure;Samples;Min_cycle;Max_cycle;Signal;HPM_P1;HPM_P2
2022/01/11 00:02:04;;;;;;;41.15;16.50;;;3.60;83.90;;;;;;7375295;19;20143;-33
2022/01/11 00:04:34;;;;;;;30.13;15.18;;;3.70;84.00;;;;;;7373588;19;20524;-34
2022/01/11 00:07:10;;;;;;;28.35;15.57;;;3.60;84.30;;;;;;7371996;19;20899;-33
2022/01/11 00:09:42;;;;;;;29.42;13.50;;;3.70;84.40;;;;;;7369394;19;20845;-33
2022/01/11 00:12:13;;;;;;;29.90;16.10;;;3.80;84.50;;;;;;7368696;19;20215;-33
2022/01/11 00:14:42;;;;;;;23.23;14.70;;;3.80;84.00;;;;;;7370664;19;20123;-33
2022/01/11 00:17:12;;;;;;;24.40;13.77;;;3.70;83.80;;;;;;7369354;19;20142;-33
2022/01/11 00:19:43;;;;;;;30.00;14.50;;;3.70;84.00;;;;;;7375100;19;20614;-44
2022/01/11 00:22:19;;;;;;;27.90;15.27;;;3.70;84.20;;;;;;7373092;19;20147;-44
2022/01/11 00:24:46;;;;;;;25.80;14.98;;;3.70;84.40;;;;;;7375209;19;20139;-45
2022/01/11 00:27:18;;;;;;;25.80;14.30;;;3.70;84.70;;;;;;7365123;19;20195;-45
2022/01/11 00:29:51;;;;;;;25.90;14.95;;;3.70;84.10;;;;;;7372583;19;20150;-44
2022/01/11 00:32:35;;;;;;;21.95;12.88;;;3.80;84.30;;;;;;7373435;19;20191;-45
2022/01/11 00:35:10;;;;;;;23.20;13.57;;;3.80;84.10;;;;;;7369263;19;20152;-45
2022/01/11 00:37:42;;;;;;;25.75;13.20;;;3.70;84.10;;;;;;7370969;19;20131;-45
2022/01/11 00:40:14;;;;;;;23.98;14.55;;;3.70;84.10;;;;;;7372084;19;20131;-45
2022/01/11 00:42:44;;;;;;;26.75;13.98;;;3.70;84.10;;;;;;7372556;19;20135;-45
2022/01/11 00:45:15;;;;;;;24.88;14.38;;;3.70;84.50;;;;;;7370317;19;20195;-44
2022/01/11 00:47:45;;;;;;;28.80;14.30;;;3.80;84.50;;;;;;7373395;19;20143;-44
2022/01/11 00:50:14;;;;;;;29.55;14.68;;;3.80;84.00;;;;;;7374442;19;20475;-45
2022/01/11 00:52:46;;;;;;;23.70;13.55;;;3.90;83.60;;;;;;7368538;19;20187;-44
2022/01/11 00:55:16;;;;;;;33.90;15.60;;;3.80;83.70;;;;;;7371583;19;20127;-45
2022/01/11 00:57:47;;;;;;;28.63;14.85;;;3.70;84.10;;;;;;7370939;19;20139;-45
2022/01/11 01:00:19;;;;;;;31.65;14.73;;;3.60;84.40;;;;;;7373783;19;20478;-45
2022/01/11 01:02:49;;;;;;;27.13;16.00;;;3.60;84.70;;;;;;7371979;19;20135;-45
2022/01/11 01:05:19;;;;;;;30.73;16.40;;;3.60;84.80;;;;;;7377151;19;20131;-45
2022/01/11 01:07:54;;;;;;;30.75;16.23;;;3.60;84.80;;;;;;7366236;19;20149;-45
2022/01/11 01:10:26;;;;;;;32.00;16.08;;;3.70;84.50;;;;;;7371482;19;20134;-45
2022/01/11 01:12:57;;;;;;;29.70;14.32;;;3.70;84.10;;;;;;7367902;19;20206;-44
2022/01/11 01:15:30;;;;;;;31.30;15.07;;;3.70;84.30;;;;;;7372178;19;20640;-45
2022/01/11 01:18:03;;;;;;;25.38;14.40;;;3.70;84.70;;;;;;7374018;19;20138;-44
2022/01/11 01:20:33;;;;;;;28.92;16.10;;;3.80;84.20;;;;;;7376433;19;20537;-34
2022/01/11 01:23:05;;;;;;;28.20;14.77;;;3.90;84.20;;;;;;7373300;19;20509;-34
2022/01/11 01:25:37;;;;;;;27.67;16.35;;;3.90;83.70;;;;;;7370562;19;20135;-34
2022/01/11 01:28:08;;;;;;;32.33;17.00;;;3.90;83.60;;;;;;7368448;19;20135;-34
2022/01/11 01:30:38;;;;;;;35.67;16.65;;;4.00;83.10;;;;;;7371701;19;20270;-34
2022/01/11 01:33:10;;;;;;;27.00;16.83;;;3.90;83.40;;;;;;7372346;19;20127;-34
2022/01/11 01:35:42;;;;;;;30.00;16.17;;;3.90;83.80;;;;;;7374534;19;20158;-34
2022/01/11 01:38:14;;;;;;;25.33;15.88;;;4.00;84.40;;;;;;7369002;19;20199;-34
2022/01/11 01:40:46;;;;;;;27.27;16.30;;;3.90;83.40;;;;;;7371995;19;20135;-33
2022/01/11 01:43:16;;;;;;;30.20;16.90;;;3.90;83.90;;;;;;7367924;19;20150;-33
2022/01/11 01:45:49;;;;;;;28.63;15.55;;;3.80;83.70;;;;;;7370036;19;20461;-33
2022/01/11 01:48:19;;;;;;;37.83;18.92;;;4.00;83.60;;;;;;7369937;19;20158;-33
2022/01/11 01:50:51;;;;;;;34.20;17.00;;;4.00;83.10;;;;;;7372386;19;20128;-34
2022/01/11 01:53:24;;;;;;;28.27;17.20;;;4.10;83.00;;;;;;7372528;19;20132;-34
2022/01/11 01:55:53;;;;;;;27.08;15.77;;;4.10;82.20;;;;;;7370376;19;20187;-34
2022/01/11 01:58:29;;;;;;;25.38;15.80;;;4.00;82.60;;;;;;7373198;19;20128;-35
2022/01/11 02:01:04;;;;;;;24.52;15.55;;;4.00;82.70;;;;;;7370187;19;20142;-44
2022/01/11 02:03:38;;;;;;;32.08;16.50;;;4.00;82.90;;;;;;7379867;19;20143;-44
2022/01/11 02:06:09;;;;;;;29.42;17.23;;;4.00;83.00;;;;;;7380108;19;20191;-45
2022/01/11 02:08:44;;;;;;;32.03;16.10;;;4.10;82.40;;;;;;7377624;19;20128;-45
2022/01/11 02:11:18;;;;;;;24.17;16.63;;;4.10;82.30;;;;;;7374116;19;20238;-45
2022/01/11 02:13:48;;;;;;;29.48;15.38;;;4.20;81.70;;;;;;7371726;19;20636;-44
2022/01/11 02:16:22;;;;;;;27.88;18.30;;;4.00;82.50;;;;;;7377742;19;20131;-46
2022/01/11 02:18:54;;;;;;;28.00;17.77;;;3.90;83.20;;;;;;7380610;19;20978;-45
2022/01/11 02:21:27;;;;;;;29.95;16.67;;;3.90;83.40;;;;;;7380591;19;20149;-45
2022/01/11 02:24:00;;;;;;;31.08;17.25;;;3.90;83.20;;;;;;7380957;19;20123;-42
2022/01/11 02:26:33;;;;;;;36.90;18.52;;;3.90;83.10;;;;;;7382473;19;20622;-44
2022/01/11 02:29:03;;;;;;;27.67;15.57;;;3.80;83.20;;;;;;7380449;19;20146;-43
2022/01/11 02:31:37;;;;;;;25.85;13.93;;;3.80;83.80;;;;;;7382737;19;20229;-34
2022/01/11 02:34:08;;;;;;;26.80;13.82;;;3.70;84.10;;;;;;7384285;19;20602;-34
2022/01/11 02:36:48;;;;;;;31.00;16.33;;;3.70;84.20;;;;;;7384831;19;20143;-34
2022/01/11 02:39:37;;;;;;;29.30;14.90;;;3.60;84.40;;;;;;7383660;19;20134;-34
2022/01/11 02:42:15;;;;;;;23.00;15.25;;;3.60;84.70;;;;;;7384924;19;20136;-34
2022/01/11 02:44:46;;;;;;;26.95;16.17;;;3.60;84.80;;;;;;7381026;19;20138;-34
2022/01/11 02:47:22;;;;;;;22.48;15.00;;;3.60;85.00;;;;;;7370929;19;20146;-34
2022/01/11 02:49:55;;;;;;;29.83;15.93;;;3.60;84.80;;;;;;7379331;19;20233;-34
2022/01/11 02:52:34;;;;;;;26.20;15.90;;;3.70;84.60;;;;;;7376589;19;20168;-33
2022/01/11 02:55:10;;;;;;;25.08;14.30;;;3.60;84.50;;;;;;7372842;19;20131;-34
2022/01/11 02:57:41;;;;;;;33.70;16.70;;;3.70;84.50;;;;;;7374204;19;20182;-33
2022/01/11 03:00:26;;;;;;;28.90;15.93;;;3.60;84.40;;;;;;7374564;19;20127;-44
2022/01/11 03:02:56;;;;;;;30.70;16.13;;;3.60;84.30;;;;;;7378078;19;20127;-44
2022/01/11 03:05:28;;;;;;;30.90;15.05;;;3.60;84.30;;;;;;7376844;19;20135;-45
2022/01/11 03:08:04;;;;;;;31.23;16.17;;;3.60;84.40;;;;;;7373635;19;20527;-43
2022/01/11 03:10:39;;;;;;;30.50;17.33;;;3.60;84.70;;;;;;7370982;19;20151;-42
2022/01/11 03:13:10;;;;;;;25.08;15.80;;;3.60;84.70;;;;;;7373660;19;20244;-43
2022/01/11 03:15:42;;;;;;;32.35;16.25;;;3.60;84.40;;;;;;7373727;19;20203;-43
2022/01/11 03:18:15;;;;;;;29.35;16.85;;;3.60;84.20;;;;;;7376505;19;20143;-44
2022/01/11 03:20:51;;;;;;;36.30;16.70;;;3.60;84.20;;;;;;7377263;19;20131;-44
2022/01/11 03:23:26;;;;;;;26.30;16.05;;;3.70;84.30;;;;;;7376229;19;20139;-44
2022/01/11 03:25:57;;;;;;;33.15;17.88;;;3.70;84.10;;;;;;7373654;19;20131;-44
2022/01/11 03:28:28;;;;;;;29.35;17.25;;;3.70;84.50;;;;;;7376770;19;20137;-44
2022/01/11 03:31:01;;;;;;;36.88;16.92;;;3.60;84.20;;;;;;7368805;19;20139;-44
2022/01/11 03:33:36;;;;;;;30.83;17.08;;;3.70;84.10;;;;;;7374979;19;20142;-43
2022/01/11 03:36:06;;;;;;;31.35;17.65;;;3.70;84.00;;;;;;7372636;19;20139;-45
2022/01/11 03:38:38;;;;;;;32.90;15.10;;;3.60;83.80;;;;;;7375312;19;20132;-44
2022/01/11 03:41:13;;;;;;;27.73;16.67;;;3.50;84.60;;;;;;7370641;19;20131;-44
2022/01/11 03:43:44;;;;;;;31.20;16.65;;;3.50;85.20;;;;;;7376356;19;20146;-45
2022/01/11 03:46:20;;;;;;;37.72;17.17;;;3.50;84.70;;;;;;7369405;19;20629;-44
2022/01/11 03:48:50;;;;;;;39.90;18.70;;;3.50;84.60;;;;;;7368396;19;20457;-45
2022/01/11 03:51:20;;;;;;;41.25;19.17;;;3.50;84.50;;;;;;7378279;19;20606;-45
2022/01/11 03:54:05;;;;;;;35.25;19.33;;;3.40;84.50;;;;;;7374656;19;20808;-44
2022/01/11 03:56:37;;;;;;;26.80;17.73;;;3.40;84.80;;;;;;7370273;19;20144;-45
2022/01/11 03:59:14;;;;;;;33.42;17.27;;;3.40;84.90;;;;;;7374663;19;20617;-44
2022/01/11 04:01:43;;;;;;;30.23;18.13;;;3.30;85.50;;;;;;7374859;19;20144;-44
2022/01/11 04:04:14;;;;;;;35.35;17.23;;;3.30;85.80;;;;;;7374989;19;20151;-44
2022/01/11 04:06:44;;;;;;;34.92;17.20;;;3.40;85.60;;;;;;7377698;19;20135;-45
2022/01/11 04:09:19;;;;;;;40.05;18.90;;;3.40;85.20;;;;;;7375783;19;20159;-45
2022/01/11 04:11:51;;;;;;;34.13;17.30;;;3.50;85.00;;;;;;7368185;19;20190;-44
2022/01/11 04:14:21;;;;;;;35.95;19.23;;;3.50;85.20;;;;;;7372661;19;20136;-45
2022/01/11 04:16:52;;;;;;;39.45;20.30;;;3.60;84.80;;;;;;7370636;19;20131;-44
2022/01/11 04:19:22;;;;;;;33.70;17.52;;;3.50;84.60;;;;;;7374560;19;20147;-44
2022/01/11 04:21:52;;;;;;;34.95;18.42;;;3.50;84.70;;;;;;7375370;19;20702;-44
2022/01/11 04:24:24;;;;;;;34.28;17.55;;;3.50;84.90;;;;;;7376884;19;20124;-44
2022/01/11 04:26:55;;;;;;;34.90;18.17;;;3.50;84.60;;;;;;7372729;19;20610;-45
2022/01/11 04:29:25;;;;;;;35.20;19.33;;;3.40;84.70;;;;;;7374825;19;20131;-44
2022/01/11 04:31:55;;;;;;;36.88;20.17;;;3.40;85.00;;;;;;7374769;19;20128;-44
2022/01/11 04:34:25;;;;;;;38.45;18.85;;;3.40;85.00;;;;;;7372856;19;20172;-44
2022/01/11 04:36:55;;;;;;;43.35;19.85;;;3.30;85.10;;;;;;7376884;19;20571;-44
2022/01/11 04:39:28;;;;;;;40.78;18.65;;;3.30;85.30;;;;;;7374341;19;20755;-44
2022/01/11 04:41:57;;;;;;;44.15;20.17;;;3.20;85.80;;;;;;7370252;19;20760;-44
2022/01/11 04:44:28;;;;;;;43.53;19.33;;;3.10;86.10;;;;;;7370418;19;20147;-45
2022/01/11 04:46:58;;;;;;;46.90;19.77;;;3.20;86.30;;;;;;7358248;19;20135;-45
2022/01/11 04:49:28;;;;;;;33.10;18.88;;;3.20;85.80;;;;;;7369587;19;20526;-45
2022/01/11 04:51:58;;;;;;;39.30;20.15;;;3.30;85.60;;;;;;7368041;19;20136;-45
2022/01/11 04:54:30;;;;;;;44.47;18.50;;;3.30;85.70;;;;;;7370965;19;20123;-45
2022/01/11 04:57:00;;;;;;;32.33;17.67;;;3.30;85.50;;;;;;7361851;19;20637;-45
2022/01/11 04:59:34;;;;;;;34.83;18.45;;;3.30;85.50;;;;;;7365232;19;20673;-34
2022/01/11 05:02:06;;;;;;;35.05;19.40;;;3.30;85.20;;;;;;7358562;19;20155;-34
2022/01/11 05:04:36;;;;;;;36.53;19.45;;;3.30;85.50;;;;;;7366771;19;20165;-34
2022/01/11 05:07:06;;;;;;;35.58;16.80;;;3.30;85.50;;;;;;7367714;19;20683;-34
2022/01/11 05:09:39;;;;;;;32.60;17.63;;;3.40;85.90;;;;;;7367824;19;20630;-34
2022/01/11 05:12:11;;;;;;;33.72;19.60;;;3.70;85.40;;;;;;7365246;19;20215;-34
2022/01/11 05:14:41;;;;;;;37.85;18.00;;;3.70;84.60;;;;;;7367540;19;20139;-34
2022/01/11 05:17:10;;;;;;;31.80;19.25;;;3.60;84.90;;;;;;7365297;19;20262;-34
2022/01/11 05:19:40;;;;;;;33.15;17.10;;;3.60;84.80;;;;;;7366433;19;20131;-34
2022/01/11 05:22:09;;;;;;;30.17;18.27;;;3.70;84.40;;;;;;7363923;19;20625;-34
2022/01/11 05:24:42;;;;;;;34.80;17.67;;;3.70;84.50;;;;;;7367753;19;20363;-34
2022/01/11 05:27:11;;;;;;;30.73;16.38;;;3.80;84.30;;;;;;7375889;19;20136;-34
2022/01/11 05:29:41;;;;;;;33.03;17.88;;;3.80;84.20;;;;;;7373944;19;20187;-45
2022/01/11 05:32:11;;;;;;;27.83;17.13;;;3.90;83.50;;;;;;7372911;19;20160;-44
2022/01/11 05:34:40;;;;;;;29.05;16.80;;;3.90;83.20;;;;;;7373843;19;20127;-45
2022/01/11 05:37:10;;;;;;;27.40;16.85;;;4.00;82.70;;;;;;7377723;19;20123;-45
2022/01/11 05:39:42;;;;;;;25.55;14.63;;;4.10;82.20;;;;;;7380897;19;20124;-44
2022/01/11 05:42:13;;;;;;;32.03;16.02;;;4.00;81.80;;;;;;7381313;19;20502;-45
2022/01/11 05:44:42;;;;;;;38.38;17.45;;;4.10;81.80;;;;;;7382746;19;20135;-45
2022/01/11 05:47:15;;;;;;;27.70;16.48;;;4.10;81.80;;;;;;7381718;19;20843;-44
2022/01/11 05:49:44;;;;;;;32.92;15.35;;;4.10;81.90;;;;;;7380336;19;20127;-44
2022/01/11 05:52:14;;;;;;;30.52;15.30;;;4.10;81.80;;;;;;7385291;19;20144;-45
2022/01/11 05:54:47;;;;;;;30.75;16.73;;;4.00;82.00;;;;;;7384132;19;20636;-45
2022/01/11 05:57:16;;;;;;;32.00;18.02;;;4.10;82.10;;;;;;7380147;19;20507;-45
2022/01/11 05:59:46;;;;;;;31.05;16.55;;;4.20;81.30;;;;;;7383540;19;20163;-45
2022/01/11 06:02:20;;;;;;;28.63;16.75;;;4.10;81.30;;;;;;7376103;19;20127;-45
2022/01/11 06:04:50;;;;;;;29.40;17.15;;;4.20;81.60;;;;;;7381428;19;20135;-44
2022/01/11 06:07:19;;;;;;;29.02;15.90;;;4.30;81.10;;;;;;7381719;19;20123;-45
2022/01/11 06:09:51;;;;;;;24.70;16.65;;;4.20;81.40;;;;;;7377246;19;20151;-44
2022/01/11 06:12:21;;;;;;;27.58;15.82;;;4.10;81.50;;;;;;7368308;19;20633;-45
2022/01/11 06:14:51;;;;;;;31.85;18.00;;;4.00;81.80;;;;;;7372456;19;20131;-45
2022/01/11 06:17:21;;;;;;;32.80;17.65;;;4.00;82.30;;;;;;7363112;19;20147;-45
2022/01/11 06:19:50;;;;;;;32.50;17.60;;;4.10;82.30;;;;;;7373950;19;20610;-45
2022/01/11 06:22:28;;;;;;;37.17;19.55;;;3.80;82.30;;;;;;7371790;19;20143;-44
2022/01/11 06:25:03;;;;;;;36.92;19.20;;;3.90;83.00;;;;;;7377818;19;20135;-45
2022/01/11 06:27:33;;;;;;;30.88;16.80;;;3.90;82.80;;;;;;7358040;19;20119;-43
2022/01/11 06:30:04;;;;;;;34.10;19.38;;;3.90;83.00;;;;;;7371931;19;20155;-34
2022/01/11 06:32:36;;;;;;;30.77;17.85;;;3.90;83.00;;;;;;7374525;19;20154;-34
2022/01/11 06:35:07;;;;;;;35.65;17.38;;;4.00;82.90;;;;;;7374032;19;20754;-34
2022/01/11 06:37:38;;;;;;;34.55;18.90;;;4.10;83.10;;;;;;7355071;19;20631;-34
2022/01/11 06:40:13;;;;;;;31.92;17.55;;;4.10;82.40;;;;;;7372811;19;20128;-34
2022/01/11 06:42:42;;;;;;;28.05;17.15;;;4.20;82.40;;;;;;7371660;19;20139;-34
2022/01/11 06:45:13;;;;;;;29.77;16.08;;;4.20;81.80;;;;;;7373366;19;20139;-34
2022/01/11 06:47:44;;;;;;;35.17;18.63;;;4.10;82.00;;;;;;7374995;19;20505;-34
2022/01/11 06:50:15;;;;;;;34.55;19.45;;;4.10;82.20;;;;;;7376924;19;20513;-34
2022/01/11 06:52:47;;;;;;;33.55;18.30;;;3.90;82.80;;;;;;7376008;19;20142;-34
2022/01/11 06:55:22;;;;;;;31.70;17.80;;;4.00;82.50;;;;;;7377903;19;20132;-34
2022/01/11 06:57:52;;;;;;;36.25;19.17;;;4.00;82.70;;;;;;7379915;19;20167;-34
2022/01/11 07:00:22;;;;;;;39.17;19.85;;;3.90;83.00;;;;;;7378210;19;20128;-45
2022/01/11 07:02:58;;;;;;;40.80;20.40;;;4.00;82.80;;;;;;7376901;19;20134;-45
2022/01/11 07:05:47;;;;;;;34.45;18.73;;;4.00;82.80;;;;;;7381489;19;20139;-44
2022/01/11 07:08:17;;;;;;;34.25;17.67;;;3.90;82.80;;;;;;7379016;19;20128;-45
2022/01/11 07:10:51;;;;;;;31.52;17.67;;;3.90;83.00;;;;;;7373978;19;20246;-45
2022/01/11 07:13:20;;;;;;;36.08;19.63;;;3.90;83.00;;;;;;7378787;19;20140;-45
2022/01/11 07:15:50;;;;;;;29.42;17.40;;;4.00;82.50;;;;;;7377774;19;20186;-45
2022/01/11 07:18:20;;;;;;;35.63;20.27;;;4.00;83.00;;;;;;7378851;19;20141;-44
2022/01/11 07:20:49;;;;;;;34.22;20.33;;;4.00;83.10;;;;;;7379530;19;20146;-45
2022/01/11 07:23:25;;;;;;;35.33;20.30;;;3.90;83.10;;;;;;7376606;19;20123;-45
2022/01/11 07:26:00;;;;;;;34.67;18.25;;;3.90;83.30;;;;;;7375680;19;20131;-45
2022/01/11 07:28:31;;;;;;;36.00;17.85;;;3.90;83.30;;;;;;7376671;19;20123;-45
2022/01/11 07:31:03;;;;;;;32.90;18.20;;;3.90;83.20;;;;;;7376489;19;20709;-44
2022/01/11 07:33:36;;;;;;;27.85;18.40;;;4.00;82.90;;;;;;7376940;19;20124;-45
2022/01/11 07:36:07;;;;;;;32.47;18.58;;;4.00;82.70;;;;;;7376077;19;20128;-44
2022/01/11 07:38:38;;;;;;;31.30;17.13;;;4.10;82.70;;;;;;7378051;19;20131;-46
2022/01/11 07:41:16;;;;;;;29.42;17.55;;;4.00;82.60;;;;;;7374015;19;20135;-34
2022/01/11 07:44:03;;;;;;;36.53;18.95;;;4.00;82.80;;;;;;7375635;19;20139;-34
2022/01/11 07:46:39;;;;;;;28.27;17.48;;;4.00;82.90;;;;;;7375418;19;20131;-34
2022/01/11 07:49:11;;;;;;;38.42;19.40;;;4.00;83.20;;;;;;7374854;19;20168;-34
2022/01/11 07:51:41;;;;;;;33.65;19.67;;;4.10;82.70;;;;;;7382729;19;20127;-34
2022/01/11 07:54:12;;;;;;;34.05;19.98;;;4.10;82.40;;;;;;7383400;19;20139;-34
2022/01/11 07:56:44;;;;;;;38.28;21.52;;;4.10;82.50;;;;;;7382410;19;20838;-34
2022/01/11 07:59:15;;;;;;;32.70;18.20;;;4.00;82.50;;;;;;7375514;19;20135;-34
2022/01/11 08:01:48;;;;;;;30.17;19.48;;;4.10;83.10;;;;;;7382311;19;20135;-34
2022/01/11 08:04:19;;;;;;;28.13;16.73;;;4.30;82.30;;;;;;7382597;19;20131;-34
2022/01/11 08:06:54;;;;;;;32.33;17.33;;;4.40;81.50;;;;;;7383136;19;20134;-34
2022/01/11 08:09:34;;;;;;;27.55;17.33;;;4.50;81.20;;;;;;7376229;19;20166;-34
2022/01/11 08:12:07;;;;;;;33.42;20.05;;;4.70;80.80;;;;;;7378446;19;20192;-34
2022/01/11 08:14:40;;;;;;;33.78;17.13;;;4.60;80.30;;;;;;7377120;19;20139;-34
2022/01/11 08:17:10;;;;;;;29.65;18.45;;;4.70;79.70;;;;;;7377052;19;20142;-34
2022/01/11 08:19:40;;;;;;;29.98;18.00;;;4.70;79.70;;;;;;7379730;19;20158;-34
2022/01/11 08:22:10;;;;;;;26.88;15.90;;;4.80;79.50;;;;;;7379781;19;20650;-34
2022/01/11 08:24:48;;;;;;;33.33;18.20;;;4.80;79.40;;;;;;7381057;19;20612;-34
2022/01/11 08:27:22;;;;;;;35.90;18.85;;;4.80;79.20;;;;;;7374027;19;20135;-34
2022/01/11 08:29:53;;;;;;;31.95;17.17;;;4.70;78.90;;;;;;7378295;19;20161;-34
2022/01/11 08:32:23;;;;;;;36.30;17.90;;;4.70;79.10;;;;;;7380538;19;20187;-34
2022/01/11 08:34:52;;;;;;;28.95;17.42;;;4.70;79.10;;;;;;7380684;19;20565;-34
2022/01/11 08:37:22;;;;;;;31.35;17.13;;;4.70;78.40;;;;;;7380910;19;20272;-34
2022/01/11 08:39:53;;;;;;;31.67;17.95;;;4.70;78.70;;;;;;7380165;19;20139;-34
2022/01/11 08:42:25;;;;;;;22.42;15.40;;;4.80;79.00;;;;;;7379206;19;20131;-34
2022/01/11 08:44:55;;;;;;;30.80;16.17;;;4.80;78.00;;;;;;7378319;19;20494;-34
2022/01/11 08:47:30;;;;;;;30.23;17.48;;;4.90;77.80;;;;;;7376792;19;20576;-34
2022/01/11 08:50:07;;;;;;;28.17;15.00;;;4.90;77.20;;;;;;7378202;19;20131;-34
2022/01/11 08:52:44;;;;;;;25.15;15.93;;;5.00;77.20;;;;;;7378206;19;20161;-34
2022/01/11 08:55:17;;;;;;;23.75;14.82;;;5.00;77.10;;;;;;7380766;19;20127;-34
2022/01/11 08:57:49;;;;;;;28.33;16.33;;;4.80;77.50;;;;;;7378869;19;20135;-34
2022/01/11 09:00:21;;;;;;;26.60;15.98;;;4.90;77.50;;;;;;7376666;19;20479;-34
2022/01/11 09:02:57;;;;;;;26.58;16.13;;;4.90;76.70;;;;;;7378066;19;20590;-34
2022/01/11 09:05:29;;;;;;;29.58;16.05;;;5.00;77.20;;;;;;7377118;19;20127;-34
2022/01/11 09:08:05;;;;;;;27.60;17.00;;;5.10;76.40;;;;;;7379675;19;20131;-35
2022/01/11 09:10:35;;;;;;;25.55;16.25;;;5.30;76.90;;;;;;7376763;19;20147;-45
2022/01/11 09:13:07;;;;;;;21.27;14.02;;;5.40;75.50;;;;;;7378305;19;20138;-45
2022/01/11 09:15:37;;;;;;;29.38;14.80;;;5.40;75.10;;;;;;7377114;19;20199;-45
2022/01/11 09:18:10;;;;;;;27.60;15.30;;;5.30;75.40;;;;;;7377138;19;20136;-45
2022/01/11 09:20:41;;;;;;;22.33;15.32;;;5.40;75.30;;;;;;7378223;19;20127;-44
2022/01/11 09:23:11;;;;;;;25.35;15.43;;;5.40;75.40;;;;;;7378087;19;20135;-45
2022/01/11 09:25:45;;;;;;;20.95;14.18;;;5.50;75.00;;;;;;7378410;19;20131;-45
2022/01/11 09:28:23;;;;;;;21.00;13.90;;;5.60;74.70;;;;;;7379326;19;20475;-43
2022/01/11 09:30:53;;;;;;;24.27;14.35;;;5.70;74.30;;;;;;7376285;19;20605;-45
2022/01/11 09:33:23;;;;;;;24.92;14.20;;;5.70;73.80;;;;;;7376369;19;20245;-44
2022/01/11 09:35:52;;;;;;;22.30;14.35;;;5.70;73.60;;;;;;7376649;19;20138;-44
2022/01/11 09:38:26;;;;;;;23.30;13.77;;;5.80;73.60;;;;;;7381214;19;20195;-45
2022/01/11 09:41:00;;;;;;;24.55;14.95;;;5.80;72.90;;;;;;7378718;19;20132;-45
2022/01/11 09:43:35;;;;;;;22.88;15.52;;;5.60;73.60;;;;;;7379421;19;20141;-45
2022/01/11 09:46:10;;;;;;;30.02;16.70;;;5.70;73.80;;;;;;7380510;19;20217;-45
2022/01/11 09:48:43;;;;;;;21.48;14.38;;;5.70;74.00;;;;;;7378032;19;20180;-45
2022/01/11 09:51:14;;;;;;;24.95;13.55;;;5.70;74.00;;;;;;7378523;19;20135;-45
2022/01/11 09:53:46;;;;;;;30.77;17.02;;;5.80;73.60;;;;;;7380895;19;20136;-45
2022/01/11 09:56:17;;;;;;;21.00;14.55;;;5.80;73.00;;;;;;7379823;19;20136;-45
2022/01/11 09:58:49;;;;;;;24.23;16.20;;;5.80;73.20;;;;;;7382666;19;20187;-45
2022/01/11 10:01:38;;;;;;;25.55;15.57;;;5.90;73.20;;;;;;7381238;19;20139;-44
2022/01/11 10:04:12;;;;;;;28.35;15.85;;;5.80;73.20;;;;;;7377935;19;20292;-45
2022/01/11 10:07:06;;;;;;;21.98;13.05;;;5.90;73.30;;;;;;7376526;19;21361;-45
2022/01/11 10:09:45;;;;;;;25.85;14.52;;;6.00;73.60;;;;;;7376025;19;20854;-42
2022/01/11 10:12:18;;;;;;;22.23;14.18;;;6.20;72.50;;;;;;7372819;19;20167;-44
2022/01/11 10:14:52;;;;;;;24.30;14.93;;;6.20;72.00;;;;;;7376618;19;20251;-46
2022/01/11 10:17:23;;;;;;;22.52;14.88;;;6.20;71.20;;;;;;7375206;19;20567;-45
2022/01/11 10:20:05;;;;;;;22.95;15.10;;;6.10;71.50;;;;;;7377339;19;20206;-45
2022/01/11 10:22:46;;;;;;;33.47;14.85;;;6.10;70.90;;;;;;7377263;19;20160;-45
2022/01/11 10:25:16;;;;;;;23.30;13.77;;;6.10;71.90;;;;;;7384082;19;20140;-45
2022/01/11 10:27:46;;;;;;;28.30;15.70;;;6.20;72.10;;;;;;7380501;19;20234;-45
2022/01/11 10:30:23;;;;;;;28.25;17.00;;;6.30;71.10;;;;;;7377210;19;20557;-45
2022/01/11 10:33:04;;;;;;;20.88;13.88;;;6.50;71.00;;;;;;7377430;19;20131;-45
2022/01/11 10:35:42;;;;;;;22.23;14.80;;;6.60;70.00;;;;;;7379244;19;20542;-44
2022/01/11 10:38:27;;;;;;;24.27;15.23;;;6.70;69.70;;;;;;7379526;19;20131;-45
2022/01/11 10:40:57;;;;;;;22.95;12.45;;;6.70;69.60;;;;;;7378694;19;20144;-44
2022/01/11 10:43:28;;;;;;;28.75;14.40;;;6.90;69.10;;;;;;7379769;19;20138;-45
2022/01/11 10:46:02;;;;;;;24.17;13.90;;;7.20;68.10;;;;;;7377505;19;20199;-45
2022/01/11 10:48:40;;;;;;;21.67;13.55;;;7.30;67.50;;;;;;7375940;19;20173;-45
2022/01/11 10:51:16;;;;;;;22.13;14.88;;;7.30;67.00;;;;;;7376809;19;20139;-35
2022/01/11 10:53:49;;;;;;;20.05;13.32;;;7.20;66.60;;;;;;7379530;19;20135;-33
2022/01/11 10:56:20;;;;;;;20.95;14.70;;;7.40;66.10;;;;;;7380425;19;20143;-33
2022/01/11 10:59:09;;;;;;;18.63;13.18;;;7.30;66.50;;;;;;7376129;19;20664;-33
2022/01/11 11:01:43;;;;;;;22.70;13.90;;;7.40;65.80;;;;;;7378777;19;20128;-33
2022/01/11 11:04:33;;;;;;;20.95;13.55;;;7.50;65.70;;;;;;7378304;19;20462;-33
2022/01/11 11:07:18;;;;;;;25.35;13.98;;;7.50;65.00;;;;;;7378733;19;20479;-33
2022/01/11 11:09:56;;;;;;;20.77;13.30;;;7.60;64.30;;;;;;7381400;19;20517;-34
2022/01/11 11:12:27;;;;;;;30.35;14.23;;;7.60;64.70;;;;;;7374639;19;21078;-33
2022/01/11 11:15:02;;;;;;;18.92;12.30;;;7.60;64.80;;;;;;7379656;19;20131;-33
2022/01/11 11:17:40;;;;;;;19.40;11.38;;;7.60;64.80;;;;;;7378213;19;20142;-34
2022/01/11 11:20:24;;;;;;;15.52;10.60;;;7.60;62.30;;;;;;7378292;19;20909;-34
2022/01/11 11:22:54;;;;;;;16.63;10.75;;;7.60;61.90;;;;;;7379320;19;20134;-34
2022/01/11 11:25:24;;;;;;;17.70;10.98;;;7.70;62.30;;;;;;7380399;19;20127;-34
2022/01/11 11:27:53;;;;;;;20.67;12.00;;;7.70;62.60;;;;;;7378583;19;20127;-34
2022/01/11 11:30:23;;;;;;;17.73;11.65;;;7.70;62.20;;;;;;7378745;19;20490;-34
2022/01/11 11:32:57;;;;;;;18.98;11.55;;;7.80;60.80;;;;;;7378506;19;20127;-34
2022/01/11 11:35:27;;;;;;;15.55;9.75;;;7.80;61.10;;;;;;7374708;19;20146;-34
2022/01/11 11:38:01;;;;;;;20.45;10.93;;;7.90;60.30;;;;;;7379716;19;20139;-34
2022/01/11 11:40:31;;;;;;;19.98;10.07;;;8.20;59.40;;;;;;7378360;19;20134;-34
2022/01/11 11:43:03;;;;;;;16.55;10.10;;;8.30;58.80;;;;;;7381105;19;20138;-34
2022/01/11 11:45:35;;;;;;;18.83;11.18;;;8.30;58.40;;;;;;7378654;19;20120;-34
2022/01/11 11:48:09;;;;;;;17.20;11.10;;;8.20;58.30;;;;;;7378540;19;20183;-34
2022/01/11 11:50:51;;;;;;;22.63;13.80;;;8.10;58.90;;;;;;7379232;19;20616;-46
2022/01/11 11:53:26;;;;;;;15.73;10.77;;;8.00;59.60;;;;;;7378891;19;20124;-46
2022/01/11 11:56:15;;;;;;;20.52;11.88;;;7.70;59.00;;;;;;7377936;19;20123;-45
2022/01/11 11:58:50;;;;;;;23.52;12.50;;;7.70;60.10;;;;;;7375526;19;20147;-44
2022/01/11 12:01:41;;;;;;;15.48;10.35;;;7.80;60.30;;;;;;7382427;19;20573;-44
2022/01/11 12:04:18;;;;;;;12.25;8.95;;;7.80;59.80;;;;;;7383553;19;20135;-45
2022/01/11 12:06:48;;;;;;;11.18;7.90;;;7.90;58.10;;;;;;7382520;19;20164;-45
2022/01/11 12:09:21;;;;;;;11.20;7.70;;;8.10;57.50;;;;;;7382801;19;20223;-45
2022/01/11 12:11:53;;;;;;;12.88;7.15;;;8.20;56.80;;;;;;7376007;19;20675;-44
2022/01/11 12:14:34;;;;;;;8.07;6.28;;;8.50;55.50;;;;;;7375413;19;20723;-44
2022/01/11 12:17:27;;;;;;;9.30;6.43;;;8.90;54.50;;;;;;7379919;19;20131;-44
2022/01/11 12:20:03;;;;;;;9.00;5.50;;;8.70;53.20;;;;;;7383187;19;20143;-44
2022/01/11 12:22:40;;;;;;;11.73;5.28;;;8.70;53.50;;;;;;7379910;19;20143;-44
2022/01/11 12:25:30;;;;;;;7.03;4.50;;;8.40;53.20;;;;;;7381829;19;20134;-43
2022/01/11 12:28:04;;;;;;;6.90;4.55;;;7.90;51.50;;;;;;7381501;19;20140;-44
2022/01/11 12:30:34;;;;;;;5.03;4.53;;;7.80;53.00;;;;;;7378387;19;20493;-44
2022/01/11 12:33:14;;;;;;;6.60;4.60;;;7.70;53.30;;;;;;7376351;19;20146;-44
2022/01/11 12:36:02;;;;;;;7.70;4.53;;;7.60;53.40;;;;;;7374881;19;20141;-44
2022/01/11 12:38:37;;;;;;;8.27;3.40;;;7.70;54.20;;;;;;7375438;19;20123;-45
2022/01/11 12:41:33;;;;;;;6.53;3.92;;;7.70;53.30;;;;;;7374208;19;20127;-44
2022/01/11 12:44:23;;;;;;;4.38;3.10;;;7.70;52.80;;;;;;7377182;19;20605;-44
2022/01/11 12:46:55;;;;;;;7.93;3.67;;;7.60;52.80;;;;;;7373770;19;20135;-43
2022/01/11 12:49:26;;;;;;;4.80;3.47;;;7.50;52.70;;;;;;7375690;19;20617;-43
2022/01/11 12:52:09;;;;;;;4.25;3.75;;;7.00;53.40;;;;;;7374750;19;20128;-43
2022/01/11 12:54:40;;;;;;;3.83;2.63;;;6.90;53.70;;;;;;7377441;19;20146;-43
2022/01/11 12:57:13;;;;;;;5.22;2.88;;;6.70;53.10;;;;;;7372751;19;20144;-43
2022/01/11 12:59:45;;;;;;;4.95;2.30;;;6.50;53.40;;;;;;7375170;19;20486;-44
2022/01/11 13:02:17;;;;;;;3.38;2.33;;;6.50;53.10;;;;;;7373946;19;20545;-43
2022/01/11 13:04:52;;;;;;;2.67;2.40;;;6.50;52.80;;;;;;7376041;19;20593;-44
2022/01/11 13:07:30;;;;;;;5.55;2.50;;;6.60;53.00;;;;;;7374606;19;20127;-44
2022/01/11 13:10:03;;;;;;;4.32;2.85;;;6.80;53.40;;;;;;7376741;19;20156;-44